Boonville, MO

10:02 AM CDT on June 29, 2017 (GMT -0500)
Viertel Memorial | | Change Station
Active Advisory: Flood Warning

Elev 715 ft 38.95 °N, 92.68 °W | Updated 7 minutes ago

Mostly Cloudy
Mostly Cloudy
72 °F
Feels Like 72 °F
N
6
Wind Variable Wind from SSE

Today
High -- | Low -- °F
--% Chance of Precip.
Yesterday
High -- | Low -- °F
Precip. -- in
Pressure 29.93 in
Visibility 10.0 miles
Clouds Scattered Clouds 4200 ft
Scattered Clouds 5000 ft
Mostly Cloudy 10000 ft
Dew Point 65 °F
Humidity 80%
Rainfall 0.24 in
Snow Depth Not available.
5:48 AM 8:40 PM
Waxing Crescent, 36% visible
METAR KVER 291455Z AUTO 15005KT 10SM VCTS SCT042 SCT050 BKN100 22/18 A2993 RMK AO2 LTG DSNT W THRU N 60001 T02200184
Pressure 29.93 in
Visibility 10.0 miles
Clouds Scattered Clouds 4200 ft
Scattered Clouds 5000 ft
Mostly Cloudy 10000 ft
Dew Point 65 °F
Humidity 80%
Rainfall 0.24 in
Snow Depth Not available.
5:48 AM 8:40 PM
Waxing Crescent, 36% visible
METAR KVER 291455Z AUTO 15005KT 10SM VCTS SCT042 SCT050 BKN100 22/18 A2993 RMK AO2 LTG DSNT W THRU N 60001 T02200184

Get Your Daily Forecast Email!

Thanks for signing up!

Be on the lookout for a verification email in your inbox.

You'll start receiving severe weather alerts in your inbox..

×

10-Day Weather Forecast

Almanac

Astronomy

Jun. 29, 2017 Rise Set
Actual Time
Civil Twilight
Nautical Twilight
Astronomical Twilight
Moon
Length of Visible Light
Length of Day
Tomorrow will be .
, % of the Moon is Illuminated

Today's Extremes

State Highs State Lows

Community

WunderPhotos

Category 6

Welcome to Category 6. This is the collective home for Weather Underground's featured writeups by Dr. Jeff Masters (right), Bob Henson (left), Chris Burt, and other regular contributors.

Nearby

Air Quality

  Air Quality AQ Index Pollutant
Not available.

Snow Depth

Station Depth Elevation

Earthquake Activity

City Distance Mag. Time & Date
Minimum magnitude displayed is 2.5.

Coastal Water Temperatures

Place Temperature

Stations

Nearby Weather Stations

Station Location Temp. Windchill Dew Point Humidity Wind Precip. Elev Updated Type
                   

Watches & Warnings

Flood Warning
Issued: 9:52 AM CDT Jun. 29, 2017 – National Weather Service

The National Weather Service in Pleasant Hill MO has issued a

* Flood Warning for
the Missouri River at Boonville.
* From Sunday morning to Monday evening.
* At 9:30 am Thursday the stage was 11.1 feet.
* Flood stage is 21.0 feet.
* Minor flooding is forecast.
* Forecast... rise above flood stage by late Sunday morning and
continue to rise to near 21.1 feet by early Sunday afternoon. The
river will fall below flood stage by Sunday evening.
* At 21.0 feet... low-lying rural areas along the river flood.

                       Latest
location fs stage day/time forecast

Missouri River
Boonville 21 11.1 Thu 09 am 21.1 early Sunday afternoon


lat... Lon 3908 9297 3902 9255 3894 9259 3896 9286 3903 9298